KROA/ROA METAR and TAF weather

Enter ICAO airport designator
Station Type Date Time Source
KROA METAR 2021/02/27 20:54 UTC NOAA

KROA 272054Z 24005KT 10SM FEW040 BKN095 OVC230 12/08 A3017 RMK AO2 SLP220 T01220078 53002


Station Type Date Time Source
KROA Decoded METAR 2021/02/27 20:54 UTC NOAA

ROANOKE REGIONAL AIRPORT, VA, United States (KROA) 37-19N 079-58W 362M
Feb 27, 2021 - 03:54 PM EST / 2021.02.27 2054 UTC
Wind: from the WSW (240 degrees) at 6 MPH (5 KT):0
Visibility: 10 mile(s):0
Sky conditions: overcast
Temperature: 54.0 F (12.2 C)
Dew Point: 46.0 F (7.8 C)
Relative Humidity: 74%
Pressure (altimeter): 30.17 in. Hg (1021 hPa)
Pressure tendency: 0.01 inches (0.2 hPa) higher than three hours ago
ob: KROA 272054Z 24005KT 10SM FEW040 BKN095 OVC230 12/08 A3017 RMK AO2 SLP220 T01220078 53002
cycle: 21

Station Type Date Time Source
KROA TAF 2021/02/27 18:42 UTC NOAA

TAF KROA 271739Z 2718/2818 VRB04KT P6SM VCSH SCT009 BKN060
FM272200 VRB03KT P6SM VCSH SCT020 OVC050
FM280300 VRB02KT 6SM BR OVC025
FM280600 VRB04KT 3SM BR OVC003
FM281600 19008G16KT P6SM SCT005 BKN025

Example: see airport list